Аэропорт: Национальный аэропорт Минск. Минск

ICAO: UMMS

METAR:
2018/11/21 18:30
UMMS 211830Z 01005G08MPS 9999 OVC008 M03/M04 Q1028 R31/CLRD// NOSIG
METAR:
2018/11/21 18:21
TAF TAF UMMS 211705Z 2118/2218 02005MPS 8000 BKN006 
      TEMPO 2118/2207 1200 -SN BCFG BR BKN003 PROB40 
      TEMPO 2200/2207 0500 FZFG BKN002 
      BECMG 2207/2208 33006MPS BKN012 
      TEMPO 2208/2218 3000 -SN BKN005